Hauptseite
METAR-TAF:

METAR-TAF

Flughäfen :

Prague, Tschechien

Prag 19

Breite: 50-07-17N, Länge: 14-32-37E, Höhe: 286 m

Beobachtung

Neuester Wetterbericht von vor 57 Minuten, um 08:00 UTC
Wind 7 kt aus Süd
Temperatur 5°C
Luftfeuchtigkeit 56%
Luftdruck 1012 hPa
Sichtweite 10 km oder mehr
keine Wolken unter 1500 m und keine Kumulonimbus oder Gewitterwolken

METAR: LKKB 270800Z 18007KT CAVOK 05/M03 Q1012 NOSIG

Zeit: 09:57 (08:57 UTC)

Prognose

Neuester Wetterbericht von vor 3 Stunden und 57 Minuten, um 05:00 UTC
Gültige Prognose vom 27 um 06 UTC bis 28 um 06 UTC
Wind 8 kt aus Süd
Sichtweite 10 km oder mehr
keine Wolken unter 1500 m und keine Kumulonimbus oder Gewitterwolken

TAF: LKKB 270500Z 2706/2806 17008KT CAVOK

Wetterbeobachtungen und Prognosen von mehr als 4000 Flughäfen (METAR und TAF Bericht).

Die verfügbaren Stationen werden durch gelbe und rote Markierungen auf der Karte dargestellt.

Führen Sie die Maus auf sie, um den Namen der Station zu sehen.

Darauf klicken, um die Beobachtung von Wetterbeobachtungen und Prognosen zu sehen.

Um die Karte zu ändern : klicken Sie auf den grünen Tasten mit einem schwarzen Kreuz Zum Vergrößern, auf den grünen Button mit einem Gedankenstrich zu verkleinern, oder auf die grünen Pfeile für benachbarte Karten.


METAR-TAF: